createdAt,value
2019-03-22T00:00:20.365Z,7.40
2019-03-22T00:02:51.572Z,7.40
2019-03-22T00:05:21.224Z,7.30
2019-03-22T00:07:50.891Z,7.30
2019-03-22T00:10:21.226Z,7.20
2019-03-22T00:12:51.030Z,7.20
2019-03-22T00:15:20.616Z,7.10
2019-03-22T00:17:51.434Z,7.10
2019-03-22T00:20:21.170Z,7.10
2019-03-22T00:22:50.874Z,7.00
2019-03-22T00:25:20.424Z,7.00
2019-03-22T00:27:50.086Z,7.00
2019-03-22T00:30:19.805Z,6.90
2019-03-22T00:32:49.406Z,6.90
2019-03-22T00:35:18.998Z,6.80
2019-03-22T00:37:48.719Z,6.80
2019-03-22T00:40:18.805Z,6.70
2019-03-22T00:42:48.599Z,6.70
2019-03-22T00:45:19.250Z,6.60
2019-03-22T00:47:48.985Z,6.60
2019-03-22T00:50:18.659Z,6.50
2019-03-22T00:52:48.454Z,6.50
2019-03-22T00:55:18.172Z,6.40
2019-03-22T00:57:47.895Z,6.30
2019-03-22T01:00:17.545Z,6.30
2019-03-22T01:02:47.258Z,6.20
2019-03-22T01:05:16.995Z,6.10
2019-03-22T01:07:46.726Z,6.10
2019-03-22T01:10:16.321Z,6.00
2019-03-22T01:12:46.107Z,6.00
2019-03-22T01:15:16.055Z,5.90
2019-03-22T01:17:45.701Z,5.90
2019-03-22T01:20:15.842Z,5.90
2019-03-22T01:22:45.509Z,5.80
2019-03-22T01:25:15.218Z,5.80
2019-03-22T01:27:44.840Z,5.80
2019-03-22T01:30:18.188Z,5.70
2019-03-22T01:32:47.865Z,5.70
2019-03-22T01:35:17.530Z,5.70
2019-03-22T01:37:47.244Z,5.60
2019-03-22T01:40:17.272Z,5.60
2019-03-22T01:42:46.932Z,5.60
2019-03-22T01:45:18.255Z,5.50
2019-03-22T01:47:47.856Z,5.50
2019-03-22T01:50:18.440Z,5.40
2019-03-22T01:52:48.087Z,5.40
2019-03-22T01:55:17.980Z,5.30
2019-03-22T01:57:53.607Z,5.20
2019-03-22T02:00:18.959Z,5.20
2019-03-22T02:02:48.603Z,5.10
2019-03-22T02:05:18.702Z,5.10
2019-03-22T02:07:48.285Z,5.00
2019-03-22T02:10:18.121Z,5.00
2019-03-22T02:12:47.768Z,5.00
2019-03-22T02:15:18.005Z,4.90
2019-03-22T02:17:47.594Z,4.90
2019-03-22T02:20:18.075Z,4.90
2019-03-22T02:22:47.649Z,4.80
2019-03-22T02:25:17.268Z,4.80
2019-03-22T02:27:47.003Z,4.80
2019-03-22T02:30:18.154Z,4.70
2019-03-22T02:32:47.790Z,4.70
2019-03-22T02:35:28.347Z,4.60
2019-03-22T02:37:48.652Z,4.60
2019-03-22T02:40:18.320Z,4.60
2019-03-22T02:42:47.970Z,4.50
2019-03-22T02:45:17.675Z,4.40
2019-03-22T02:47:47.321Z,4.40
2019-03-22T02:50:19.036Z,4.30
2019-03-22T02:52:48.284Z,4.30
2019-03-22T02:55:17.861Z,4.20
2019-03-22T02:57:47.564Z,4.10
2019-03-22T03:00:18.363Z,4.10
2019-03-22T03:02:48.039Z,4.00
2019-03-22T03:05:17.638Z,4.00
2019-03-22T03:07:47.361Z,3.90
2019-03-22T03:10:17.978Z,3.90
2019-03-22T03:12:47.646Z,3.80
2019-03-22T03:15:18.832Z,3.80
2019-03-22T03:17:48.448Z,3.70
2019-03-22T03:20:19.351Z,3.70
2019-03-22T03:22:49.175Z,3.60
2019-03-22T03:25:19.158Z,3.50
2019-03-22T03:27:48.805Z,3.50
2019-03-22T03:30:21.769Z,3.50
2019-03-22T03:32:51.442Z,3.40
2019-03-22T03:35:21.141Z,3.40
2019-03-22T03:37:50.809Z,3.40
2019-03-22T03:40:20.487Z,3.30
2019-03-22T03:42:50.252Z,3.20
2019-03-22T03:45:33.866Z,3.20
2019-03-22T03:48:08.230Z,3.20
2019-03-22T03:50:38.510Z,3.10
2019-03-22T03:53:08.213Z,3.00
2019-03-22T03:55:37.827Z,2.90
2019-03-22T03:58:07.478Z,2.90
2019-03-22T04:00:37.138Z,2.80
2019-03-22T04:03:06.799Z,2.70
2019-03-22T04:05:36.370Z,2.60
2019-03-22T04:08:06.021Z,2.50
2019-03-22T04:10:35.644Z,2.50
2019-03-22T04:13:05.429Z,2.40
2019-03-22T04:15:35.130Z,2.40
2019-03-22T04:18:04.776Z,2.40
2019-03-22T04:20:35.423Z,2.40
2019-03-22T04:23:05.077Z,2.40
2019-03-22T04:25:34.889Z,2.40
2019-03-22T04:28:04.573Z,2.30
2019-03-22T04:30:34.294Z,2.30
2019-03-22T04:33:06.643Z,2.10
2019-03-22T04:35:35.361Z,2.00
2019-03-22T04:38:05.072Z,1.90
2019-03-22T04:40:34.643Z,1.80
2019-03-22T04:43:04.263Z,1.70
2019-03-22T04:45:36.023Z,1.60
2019-03-22T04:48:17.201Z,1.50
2019-03-22T04:50:49.074Z,1.50
2019-03-22T04:53:22.051Z,1.40
2019-03-22T04:55:55.864Z,1.40
2019-03-22T04:58:26.578Z,1.30
2019-03-22T05:00:58.331Z,1.30
2019-03-22T05:03:29.345Z,1.20
2019-03-22T05:06:01.869Z,1.20
2019-03-22T05:08:34.322Z,1.20
2019-03-22T05:11:06.022Z,1.20
2019-03-22T05:13:37.514Z,1.10
2019-03-22T05:16:10.109Z,1.10
2019-03-22T05:18:43.921Z,1.10
2019-03-22T05:21:14.630Z,1.10
2019-03-22T05:23:46.290Z,1.10
2019-03-22T05:26:18.594Z,1.00
2019-03-22T05:28:48.850Z,1.00
2019-03-22T05:31:38.394Z,1.00
2019-03-22T05:34:08.145Z,0.90
2019-03-22T05:36:37.822Z,0.90
2019-03-22T05:39:09.056Z,1.00
2019-03-22T05:41:38.759Z,1.00
2019-03-22T05:44:08.427Z,1.00
2019-03-22T05:46:38.019Z,1.10
2019-03-22T05:49:07.697Z,1.10
2019-03-22T05:51:37.429Z,1.00
2019-03-22T05:54:07.169Z,1.00
2019-03-22T05:56:36.835Z,1.10
2019-03-22T05:59:06.499Z,1.10
2019-03-22T06:01:36.162Z,1.10
2019-03-22T06:04:05.868Z,1.10
2019-03-22T06:06:35.538Z,1.20
2019-03-22T06:09:07.636Z,1.20
2019-03-22T06:11:37.332Z,1.20
2019-03-22T06:14:07.009Z,1.20
2019-03-22T06:16:36.660Z,1.20
2019-03-22T06:19:06.259Z,1.20
2019-03-22T06:21:35.918Z,1.30
2019-03-22T06:24:05.592Z,1.30
2019-03-22T06:26:35.166Z,1.30
2019-03-22T06:29:04.840Z,1.30
2019-03-22T06:31:34.415Z,1.40
2019-03-22T06:34:04.056Z,1.40
2019-03-22T06:36:33.715Z,1.50
2019-03-22T06:39:07.310Z,1.60
2019-03-22T06:41:37.218Z,1.60
2019-03-22T06:44:06.927Z,1.80
2019-03-22T06:46:36.626Z,1.80
2019-03-22T06:49:06.352Z,2.00
2019-03-22T06:51:35.961Z,2.10
2019-03-22T06:54:05.600Z,2.20
2019-03-22T06:56:35.263Z,2.30
2019-03-22T06:59:05.064Z,2.40
2019-03-22T07:01:34.724Z,2.50
2019-03-22T07:04:04.384Z,2.60
2019-03-22T07:06:34.097Z,2.70
2019-03-22T07:09:05.294Z,2.80
2019-03-22T07:11:34.971Z,2.90
2019-03-22T07:14:04.617Z,2.90
2019-03-22T07:16:34.280Z,3.10
2019-03-22T07:19:04.099Z,3.20
2019-03-22T07:21:33.822Z,3.30
2019-03-22T07:24:03.480Z,3.40
2019-03-22T07:26:33.227Z,3.50
2019-03-22T07:29:02.965Z,3.60
2019-03-22T07:31:32.620Z,3.70
2019-03-22T07:34:02.303Z,3.80
2019-03-22T07:36:31.995Z,3.90
2019-03-22T07:39:01.657Z,4.00
2019-03-22T07:41:31.600Z,4.10
2019-03-22T07:44:01.322Z,4.20
2019-03-22T07:46:31.005Z,4.30
2019-03-22T07:49:00.731Z,4.40
2019-03-22T07:51:30.394Z,4.50
2019-03-22T07:54:00.063Z,4.60
2019-03-22T07:56:29.788Z,4.70
2019-03-22T07:58:59.475Z,4.80
2019-03-22T08:01:29.061Z,5.00
2019-03-22T08:03:58.716Z,5.00
2019-03-22T08:06:28.369Z,5.10
2019-03-22T08:08:58.090Z,5.30
2019-03-22T08:11:27.764Z,5.30
2019-03-22T08:13:57.400Z,5.50
2019-03-22T08:16:27.137Z,5.60
2019-03-22T08:18:56.862Z,5.70
2019-03-22T08:21:26.514Z,5.80
2019-03-22T08:23:56.325Z,5.90
2019-03-22T08:26:26.012Z,6.00
2019-03-22T08:28:55.731Z,6.10
2019-03-22T08:31:25.396Z,6.30
2019-03-22T08:33:56.040Z,6.40
2019-03-22T08:36:25.701Z,6.50
2019-03-22T08:38:55.507Z,6.60
2019-03-22T08:41:26.107Z,6.70
2019-03-22T08:43:55.807Z,6.80
2019-03-22T08:46:25.450Z,6.80
2019-03-22T08:48:55.152Z,7.00
2019-03-22T08:51:24.789Z,7.10
2019-03-22T08:53:55.734Z,7.20
2019-03-22T08:56:25.426Z,7.30
2019-03-22T08:58:55.176Z,7.40
2019-03-22T09:01:24.898Z,7.50
2019-03-22T09:03:54.600Z,7.50
2019-03-22T09:06:24.238Z,7.60
2019-03-22T09:08:53.870Z,7.70
2019-03-22T09:11:23.440Z,7.80
2019-03-22T09:13:53.891Z,7.90
2019-03-22T09:16:23.755Z,8.00
2019-03-22T09:18:53.462Z,8.20
2019-03-22T09:21:23.108Z,8.30
2019-03-22T09:23:52.818Z,8.30
2019-03-22T09:26:22.554Z,8.50
2019-03-22T09:28:52.264Z,8.60
2019-03-22T09:31:21.957Z,8.70
2019-03-22T09:33:51.608Z,8.70
2019-03-22T09:36:21.320Z,8.70
2019-03-22T09:38:51.006Z,8.70
2019-03-22T09:41:20.693Z,8.80
2019-03-22T09:43:50.362Z,8.80
2019-03-22T09:46:20.110Z,8.80
2019-03-22T09:48:49.845Z,8.80
2019-03-22T09:51:19.447Z,8.90
2019-03-22T09:53:49.154Z,9.00
2019-03-22T09:56:18.772Z,9.10
2019-03-22T09:58:48.500Z,9.20
2019-03-22T10:01:23.483Z,9.30
2019-03-22T10:03:49.566Z,9.40
2019-03-22T10:06:19.380Z,9.50
2019-03-22T10:08:49.082Z,9.70
2019-03-22T10:11:18.716Z,9.80
2019-03-22T10:13:48.548Z,9.80
2019-03-22T10:16:19.402Z,9.70
2019-03-22T10:18:49.114Z,9.90
2019-03-22T10:21:22.631Z,10.00
2019-03-22T10:23:50.985Z,10.00
2019-03-22T10:26:20.712Z,10.10
2019-03-22T10:28:50.358Z,10.10
2019-03-22T10:31:20.071Z,10.10
2019-03-22T10:33:49.801Z,10.20
2019-03-22T10:36:19.514Z,10.30
2019-03-22T10:38:50.421Z,10.30
2019-03-22T10:41:20.365Z,10.30
2019-03-22T10:43:49.984Z,10.30
2019-03-22T10:46:19.753Z,10.50
2019-03-22T10:48:49.315Z,10.60
2019-03-22T10:51:21.413Z,10.70
2019-03-22T10:53:50.338Z,10.90
2019-03-22T10:56:19.908Z,11.00
2019-03-22T10:58:49.538Z,11.10
2019-03-22T11:01:19.198Z,11.20
2019-03-22T11:03:48.979Z,11.20
2019-03-22T11:06:25.961Z,11.20
2019-03-22T11:08:50.009Z,11.30
2019-03-22T11:11:19.736Z,11.40
2019-03-22T11:13:49.404Z,11.30
2019-03-22T11:16:19.056Z,11.20
2019-03-22T11:18:48.734Z,11.30
2019-03-22T11:21:18.317Z,11.40
2019-03-22T11:23:48.012Z,11.40
2019-03-22T11:26:17.673Z,11.50
2019-03-22T11:28:47.340Z,11.60
2019-03-22T11:31:17.090Z,11.80
2019-03-22T11:33:47.260Z,11.80
2019-03-22T11:36:16.984Z,11.90
2019-03-22T11:38:46.663Z,11.90
2019-03-22T11:41:16.343Z,11.90
2019-03-22T11:43:46.064Z,12.00
2019-03-22T11:46:15.648Z,12.00
2019-03-22T11:48:45.326Z,11.90
2019-03-22T11:51:14.897Z,12.00
2019-03-22T11:53:45.523Z,12.00
2019-03-22T11:56:15.235Z,12.00
2019-03-22T11:58:44.914Z,11.70
2019-03-22T12:01:19.666Z,11.60
2019-03-22T12:03:45.834Z,11.50
2019-03-22T12:06:15.562Z,11.40
2019-03-22T12:08:45.224Z,11.40
2019-03-22T12:11:14.959Z,11.40
2019-03-22T12:13:44.663Z,11.40
2019-03-22T12:16:14.305Z,11.20
2019-03-22T12:18:43.921Z,11.20
2019-03-22T12:21:13.567Z,11.20
2019-03-22T12:23:43.247Z,11.20
2019-03-22T12:26:12.965Z,11.40
2019-03-22T12:28:42.644Z,11.60
2019-03-22T12:31:12.347Z,11.90
2019-03-22T12:33:41.968Z,12.10
2019-03-22T12:36:11.600Z,12.30
2019-03-22T12:38:42.036Z,12.40
2019-03-22T12:41:11.718Z,12.50
2019-03-22T12:43:41.385Z,12.50
2019-03-22T12:46:11.057Z,12.50
2019-03-22T12:48:40.712Z,12.40
2019-03-22T12:51:10.401Z,12.50
2019-03-22T12:53:40.034Z,12.60
2019-03-22T12:56:09.698Z,12.50
2019-03-22T12:58:39.428Z,12.60
2019-03-22T13:01:10.269Z,12.70
2019-03-22T13:03:40.074Z,12.80
2019-03-22T13:06:09.673Z,12.80
2019-03-22T13:08:39.400Z,12.80
2019-03-22T13:11:09.082Z,12.80
2019-03-22T13:13:38.672Z,12.80
2019-03-22T13:16:08.418Z,12.90
2019-03-22T13:18:38.122Z,12.80
2019-03-22T13:21:07.758Z,12.80
2019-03-22T13:23:37.399Z,12.80
2019-03-22T13:26:07.072Z,12.80
2019-03-22T13:28:37.767Z,12.70
2019-03-22T13:31:07.342Z,12.60
2019-03-22T13:33:37.076Z,12.60
2019-03-22T13:36:07.043Z,12.50
2019-03-22T13:38:36.690Z,12.60
2019-03-22T13:41:06.294Z,12.80
2019-03-22T13:43:35.970Z,12.80
2019-03-22T13:46:05.624Z,13.00
2019-03-22T13:48:35.364Z,12.90
2019-03-22T13:51:05.075Z,12.90
2019-03-22T13:53:34.702Z,13.10
2019-03-22T13:56:04.575Z,13.10
2019-03-22T13:58:34.165Z,13.30
2019-03-22T14:01:03.818Z,13.30
2019-03-22T14:03:33.471Z,13.40
2019-03-22T14:06:03.134Z,13.40
2019-03-22T14:08:33.812Z,13.60
2019-03-22T14:11:03.476Z,13.60
2019-03-22T14:13:33.196Z,13.70
2019-03-22T14:16:02.859Z,13.70
2019-03-22T14:18:32.607Z,13.60
2019-03-22T14:21:02.478Z,13.60
2019-03-22T14:23:33.048Z,13.40
2019-03-22T14:26:02.772Z,13.20
2019-03-22T14:28:32.507Z,13.10
2019-03-22T14:31:02.229Z,13.10
2019-03-22T14:33:31.887Z,13.20
2019-03-22T14:36:01.619Z,13.30
2019-03-22T14:38:31.358Z,13.50
2019-03-22T14:41:01.036Z,13.50
2019-03-22T14:43:30.731Z,13.60
2019-03-22T14:46:00.518Z,13.60
2019-03-22T14:48:30.210Z,13.70
2019-03-22T14:50:59.858Z,13.70
2019-03-22T14:53:29.535Z,13.70
2019-03-22T14:55:59.247Z,13.80
2019-03-22T14:58:28.968Z,13.80
2019-03-22T15:00:58.672Z,13.80
2019-03-22T15:03:28.317Z,13.80
2019-03-22T15:05:58.099Z,13.80
2019-03-22T15:08:27.768Z,13.60
2019-03-22T15:10:57.423Z,13.60
2019-03-22T15:13:28.662Z,13.50
2019-03-22T15:16:05.686Z,13.50
2019-03-22T15:18:39.673Z,13.50
2019-03-22T15:21:16.705Z,13.50
2019-03-22T15:24:04.192Z,13.40
2019-03-22T15:26:51.750Z,13.40
2019-03-22T15:29:29.296Z,13.10
2019-03-22T15:32:15.760Z,13.20
2019-03-22T15:35:03.471Z,13.10
2019-03-22T15:37:47.018Z,13.10
2019-03-22T15:40:16.764Z,13.20
2019-03-22T15:42:46.526Z,13.20
2019-03-22T15:47:46.031Z,13.20
2019-03-22T15:50:16.180Z,13.10
2019-03-22T15:52:45.927Z,13.20
2019-03-22T15:55:16.679Z,13.20
2019-03-22T15:57:46.401Z,13.20
2019-03-22T16:00:18.575Z,13.20
2019-03-22T16:02:48.261Z,13.20
2019-03-22T16:05:18.638Z,13.20
2019-03-22T16:07:48.574Z,13.20
2019-03-22T16:10:18.172Z,13.00
2019-03-22T16:12:47.888Z,13.00
2019-03-22T16:15:18.618Z,13.00
2019-03-22T16:17:48.357Z,12.90
2019-03-22T16:20:18.195Z,12.90
2019-03-22T16:22:47.854Z,12.80
2019-03-22T16:25:17.648Z,12.80
2019-03-22T16:27:47.410Z,12.80
2019-03-22T16:30:17.099Z,12.80
2019-03-22T16:32:46.820Z,12.70
2019-03-22T16:35:16.494Z,12.60
2019-03-22T16:37:46.125Z,12.50
2019-03-22T16:40:23.841Z,12.40
2019-03-22T16:42:49.975Z,12.20
2019-03-22T16:45:33.916Z,11.80
2019-03-22T16:48:03.657Z,11.60
2019-03-22T16:50:33.400Z,11.40
2019-03-22T16:53:03.065Z,11.00
2019-03-22T16:55:33.810Z,11.00
2019-03-22T16:58:04.826Z,10.80
2019-03-22T17:00:34.626Z,10.60
2019-03-22T17:03:06.786Z,10.40
2019-03-22T17:05:36.516Z,10.30
2019-03-22T17:08:06.205Z,10.20
2019-03-22T17:10:35.886Z,10.00
2019-03-22T17:13:05.732Z,10.00
2019-03-22T17:15:35.449Z,9.80
2019-03-22T17:18:05.566Z,9.80
2019-03-22T17:20:35.169Z,9.70
2019-03-22T17:23:04.962Z,9.70
2019-03-22T17:25:34.730Z,9.60
2019-03-22T17:28:04.340Z,9.50
2019-03-22T17:30:34.091Z,9.50
2019-03-22T17:33:03.834Z,9.40
2019-03-22T17:35:33.561Z,9.30
2019-03-22T17:38:03.228Z,9.20
2019-03-22T17:40:32.871Z,9.10
2019-03-22T17:43:02.540Z,9.00
2019-03-22T17:45:32.213Z,9.00
2019-03-22T17:48:01.937Z,8.90
2019-03-22T17:50:31.646Z,8.90
2019-03-22T17:53:01.330Z,8.80
2019-03-22T17:58:15.425Z,8.80
2019-03-22T18:00:45.863Z,8.60
2019-03-22T18:03:16.296Z,8.50
2019-03-22T18:05:46.137Z,8.50
2019-03-22T18:08:15.819Z,8.40
2019-03-22T18:10:45.501Z,8.30
2019-03-22T18:13:15.169Z,8.20
2019-03-22T18:15:44.844Z,8.10
2019-03-22T18:18:14.527Z,8.10
2019-03-22T18:20:44.177Z,8.10
2019-03-22T18:23:13.927Z,8.10
2019-03-22T18:25:43.655Z,8.10
2019-03-22T18:28:13.374Z,8.10
2019-03-22T18:30:43.063Z,8.10
2019-03-22T18:33:12.723Z,8.00
2019-03-22T18:35:42.407Z,8.00
2019-03-22T18:38:12.573Z,8.00
2019-03-22T18:40:42.199Z,7.90
2019-03-22T18:43:11.946Z,7.90
2019-03-22T18:45:41.692Z,7.90
2019-03-22T18:48:12.363Z,7.80
2019-03-22T18:50:41.950Z,7.90
2019-03-22T18:53:11.614Z,7.80
2019-03-22T18:55:41.272Z,7.80
2019-03-22T18:58:10.922Z,7.80
2019-03-22T19:00:41.993Z,7.80
2019-03-22T19:03:11.649Z,7.70
2019-03-22T19:05:41.396Z,7.70
2019-03-22T19:08:11.122Z,7.70
2019-03-22T19:10:40.856Z,7.70
2019-03-22T19:13:10.609Z,7.60
2019-03-22T19:15:40.354Z,7.60
2019-03-22T19:18:10.095Z,7.50
2019-03-22T19:20:39.793Z,7.50
2019-03-22T19:23:09.541Z,7.50
2019-03-22T19:25:39.216Z,7.50
2019-03-22T19:28:08.933Z,7.40
2019-03-22T19:30:38.651Z,7.50
2019-03-22T19:33:08.388Z,7.50
2019-03-22T19:35:38.075Z,7.40
2019-03-22T19:38:07.800Z,7.40
2019-03-22T19:40:37.548Z,7.40
2019-03-22T19:43:07.208Z,7.40
2019-03-22T19:45:36.959Z,7.40
2019-03-22T19:48:07.720Z,7.40
2019-03-22T19:50:37.412Z,7.30
2019-03-22T19:53:07.161Z,7.30
2019-03-22T19:55:36.914Z,7.30
2019-03-22T19:58:06.693Z,7.20
2019-03-22T20:00:36.384Z,7.30
2019-03-22T20:03:07.109Z,7.20
2019-03-22T20:05:36.788Z,7.20
2019-03-22T20:08:06.437Z,7.20
2019-03-22T20:10:36.169Z,7.20
2019-03-22T20:13:05.909Z,7.10
2019-03-22T20:15:35.562Z,7.10
2019-03-22T20:18:05.142Z,7.10
2019-03-22T20:20:36.203Z,7.10
2019-03-22T20:23:06.029Z,7.10
2019-03-22T20:25:35.772Z,7.10
2019-03-22T20:28:05.512Z,7.00
2019-03-22T20:30:35.220Z,7.00
2019-03-22T20:33:05.092Z,7.00
2019-03-22T20:35:34.815Z,6.90
2019-03-22T20:38:04.470Z,6.90
2019-03-22T20:40:34.267Z,6.90
2019-03-22T20:43:03.969Z,6.80
2019-03-22T20:45:33.712Z,6.80
2019-03-22T20:48:03.491Z,6.80
2019-03-22T20:50:36.103Z,6.70
2019-03-22T20:53:04.501Z,6.70
2019-03-22T20:55:34.178Z,6.70
2019-03-22T20:58:03.863Z,6.70
2019-03-22T21:00:33.513Z,6.70
2019-03-22T21:03:03.549Z,6.60
2019-03-22T21:05:33.198Z,6.60
2019-03-22T21:08:02.926Z,6.60
2019-03-22T21:10:32.671Z,6.60
2019-03-22T21:13:02.398Z,6.60
2019-03-22T21:15:32.057Z,6.60
2019-03-22T21:18:01.786Z,6.50
2019-03-22T21:20:31.441Z,6.60
2019-03-22T21:23:01.216Z,6.50
2019-03-22T21:25:30.992Z,6.50
2019-03-22T21:28:00.698Z,6.50
2019-03-22T21:30:30.451Z,6.50
2019-03-22T21:33:00.199Z,6.40
2019-03-22T21:35:37.156Z,6.40
2019-03-22T21:38:10.406Z,6.40
2019-03-22T21:40:32.559Z,6.40
2019-03-22T21:43:02.327Z,6.40
2019-03-22T21:45:32.142Z,6.40
2019-03-22T21:48:01.799Z,6.40
2019-03-22T21:50:31.653Z,6.40
2019-03-22T21:53:01.308Z,6.40
2019-03-22T21:55:31.055Z,6.40
2019-03-22T21:58:00.785Z,6.40
2019-03-22T22:00:30.524Z,6.40
2019-03-22T22:03:00.192Z,6.40
2019-03-22T22:05:29.860Z,6.40
2019-03-22T22:07:59.599Z,6.40
2019-03-22T22:10:29.354Z,6.30
2019-03-22T22:12:59.103Z,6.30
2019-03-22T22:15:28.757Z,6.40
2019-03-22T22:17:58.514Z,6.40
2019-03-22T22:20:41.599Z,6.30
2019-03-22T22:23:11.369Z,6.30
2019-03-22T22:25:41.228Z,6.40
2019-03-22T22:28:10.888Z,6.40
2019-03-22T22:30:40.626Z,6.40
2019-03-22T22:33:10.340Z,6.40
2019-03-22T22:35:40.086Z,6.40
2019-03-22T22:38:09.727Z,6.40
2019-03-22T22:40:39.442Z,6.40
2019-03-22T22:43:09.058Z,6.50
2019-03-22T22:45:38.790Z,6.50
2019-03-22T22:48:08.459Z,6.50
2019-03-22T22:50:38.221Z,6.50
2019-03-22T22:53:07.872Z,6.60
2019-03-22T22:55:38.024Z,6.60
2019-03-22T22:58:07.767Z,6.60
2019-03-22T23:00:38.117Z,6.60
2019-03-22T23:03:07.841Z,6.70
2019-03-22T23:05:37.517Z,6.70
2019-03-22T23:08:07.286Z,6.70
2019-03-22T23:10:37.017Z,6.70
2019-03-22T23:13:06.747Z,6.70
2019-03-22T23:15:36.539Z,6.80
2019-03-22T23:18:06.270Z,6.80
2019-03-22T23:20:36.192Z,6.90
2019-03-22T23:23:05.867Z,6.90
2019-03-22T23:25:36.642Z,6.90
2019-03-22T23:28:06.379Z,6.90
2019-03-22T23:30:36.101Z,7.00
2019-03-22T23:33:05.887Z,7.00
2019-03-22T23:35:35.624Z,7.00
2019-03-22T23:38:05.310Z,7.00
2019-03-22T23:40:34.978Z,7.00
2019-03-22T23:43:04.690Z,7.10
2019-03-22T23:45:34.424Z,7.10
2019-03-22T23:48:04.124Z,7.00
2019-03-22T23:50:33.856Z,7.10
2019-03-22T23:53:03.516Z,7.10
2019-03-22T23:55:33.202Z,7.10
2019-03-22T23:58:03.452Z,7.10
